Time;durP1;ratioP1;P1;durP2;ratioP2;P2;SDS_P1;SDS_P2;PMS_P1;PMS_P2;Temp;Humidity;BMP_temperature;BMP_pressure;BME280_temperature;BME280_humidity;BME280_pressure;Samples;Min_cycle;Max_cycle;Signal;HPM_P1;HPM_P2
2022/10/24 00:00:45;;;;;;;5.38;2.67;;;15.00;75.40;;;;;;5002578;28;20085;-83
2022/10/24 00:03:13;;;;;;;3.72;2.70;;;15.00;75.40;;;;;;5005252;28;20022;-83
2022/10/24 00:05:44;;;;;;;4.03;2.60;;;15.00;75.40;;;;;;4993688;28;20074;-82
2022/10/24 00:08:11;;;;;;;3.03;2.55;;;15.00;75.50;;;;;;5004627;28;20037;-81
2022/10/24 00:10:42;;;;;;;4.10;2.83;;;15.00;75.50;;;;;;5005503;28;20022;-81
2022/10/24 00:13:12;;;;;;;4.32;2.78;;;14.90;75.40;;;;;;5008572;28;20379;-79
2022/10/24 00:15:42;;;;;;;5.00;2.88;;;14.90;75.40;;;;;;4991415;28;20064;-80
2022/10/24 00:18:08;;;;;;;4.40;2.75;;;14.90;75.40;;;;;;5003094;28;20056;-80
2022/10/24 00:20:35;;;;;;;3.75;3.22;;;14.90;75.40;;;;;;5006541;28;20033;-80
2022/10/24 00:23:03;;;;;;;4.63;3.05;;;15.00;75.60;;;;;;5009476;28;20054;-81
2022/10/24 00:25:29;;;;;;;4.13;3.17;;;15.00;75.60;;;;;;5024922;28;20037;-80
2022/10/24 00:27:56;;;;;;;4.90;3.33;;;14.90;75.40;;;;;;5023585;28;20022;-81
2022/10/24 00:30:23;;;;;;;6.70;3.55;;;15.00;75.60;;;;;;5027795;28;20034;-82
2022/10/24 00:32:50;;;;;;;4.57;4.18;;;15.00;75.60;;;;;;5015616;28;20054;-82
2022/10/24 00:35:16;;;;;;;4.70;3.65;;;14.90;75.50;;;;;;5010365;28;20030;-80
2022/10/24 00:37:43;;;;;;;4.13;3.55;;;15.00;75.60;;;;;;5000661;28;20034;-80
2022/10/24 00:40:14;;;;;;;4.60;3.65;;;15.00;75.60;;;;;;4980940;28;20048;-81
2022/10/24 00:42:40;;;;;;;5.22;3.83;;;15.00;75.60;;;;;;4995026;28;20048;-82
2022/10/24 00:45:36;;;;;;;5.15;3.63;;;15.00;75.60;;;;;;4990980;28;20117;-80
2022/10/24 00:48:21;;;;;;;6.65;4.18;;;15.00;75.70;;;;;;4982012;28;20042;-80
2022/10/24 00:50:51;;;;;;;5.60;3.95;;;15.00;75.60;;;;;;4975584;28;20485;-80
2022/10/24 00:53:18;;;;;;;6.07;4.20;;;14.90;75.50;;;;;;4977830;28;20762;-80
2022/10/24 00:55:48;;;;;;;4.72;4.07;;;15.00;75.70;;;;;;4991344;28;20035;-81
2022/10/24 00:58:17;;;;;;;4.28;3.88;;;14.90;75.50;;;;;;4989907;28;20038;-79
2022/10/24 01:00:43;;;;;;;5.18;4.00;;;14.90;75.50;;;;;;4998615;28;20035;-80
2022/10/24 01:03:11;;;;;;;4.20;3.80;;;14.90;75.60;;;;;;4989748;28;20027;-80
2022/10/24 01:06:06;;;;;;;4.25;3.85;;;14.90;75.60;;;;;;4991847;28;20079;-81
2022/10/24 01:08:47;;;;;;;7.03;4.10;;;14.90;75.70;;;;;;4984647;28;20106;-79
2022/10/24 01:11:13;;;;;;;8.30;4.30;;;14.90;75.60;;;;;;4989132;28;20044;-81
2022/10/24 01:13:58;;;;;;;4.15;3.72;;;14.90;75.70;;;;;;4988034;28;20031;-79
2022/10/24 01:16:36;;;;;;;5.10;4.20;;;14.90;75.70;;;;;;4991603;28;20066;-80
2022/10/24 01:19:11;;;;;;;8.27;4.35;;;14.90;75.70;;;;;;4989647;28;20483;-81
2022/10/24 01:21:49;;;;;;;4.97;3.35;;;14.90;75.70;;;;;;4990113;28;20035;-81
2022/10/24 01:24:43;;;;;;;5.50;4.60;;;14.90;75.70;;;;;;4983818;28;20096;-81
2022/10/24 01:27:34;;;;;;;5.10;3.53;;;14.90;75.80;;;;;;4996737;28;20093;-79
2022/10/24 01:30:12;;;;;;;4.38;3.60;;;14.90;75.80;;;;;;5005554;28;20042;-81
2022/10/24 01:33:02;;;;;;;4.30;3.90;;;14.90;75.70;;;;;;4982853;28;20105;-81
2022/10/24 01:36:09;;;;;;;5.00;4.32;;;14.90;75.70;;;;;;4994043;28;20064;-81
2022/10/24 01:38:38;;;;;;;6.00;4.38;;;14.90;75.70;;;;;;4980327;28;20050;-82
2022/10/24 01:41:20;;;;;;;7.05;4.10;;;15.00;75.80;;;;;;5007082;28;20029;-81
2022/10/24 01:43:54;;;;;;;6.03;4.40;;;15.00;75.90;;;;;;4996202;28;20659;-81
2022/10/24 01:46:26;;;;;;;6.57;4.43;;;15.00;75.80;;;;;;4998413;28;20496;-80
2022/10/24 01:49:02;;;;;;;5.88;4.50;;;15.00;75.80;;;;;;5006389;28;20102;-81
2022/10/24 01:51:31;;;;;;;3.97;3.22;;;15.00;75.90;;;;;;4997117;28;20030;-84
2022/10/24 01:53:58;;;;;;;6.70;4.55;;;15.00;75.90;;;;;;5010108;28;20018;-81
2022/10/24 01:56:26;;;;;;;6.20;4.25;;;15.00;75.90;;;;;;5016417;28;20045;-83
2022/10/24 01:59:02;;;;;;;4.97;4.20;;;15.00;75.90;;;;;;5007679;28;20479;-82
2022/10/24 02:01:29;;;;;;;6.72;4.53;;;15.00;75.90;;;;;;5015316;28;20026;-82
2022/10/24 02:04:00;;;;;;;6.35;4.57;;;15.00;76.00;;;;;;5000612;28;20027;-83
2022/10/24 02:06:38;;;;;;;4.88;3.60;;;15.00;76.00;;;;;;5004417;28;20022;-83
2022/10/24 02:09:12;;;;;;;4.47;3.50;;;15.00;76.00;;;;;;5012370;28;20083;-83
2022/10/24 02:11:40;;;;;;;7.25;4.05;;;15.00;76.00;;;;;;5015768;28;20040;-79
2022/10/24 02:14:17;;;;;;;4.25;3.08;;;15.00;76.00;;;;;;5011335;28;20332;-79
2022/10/24 02:16:43;;;;;;;5.18;3.03;;;15.00;76.00;;;;;;5013955;28;20056;-80
2022/10/24 02:19:12;;;;;;;3.63;2.58;;;15.00;75.90;;;;;;4991018;28;20030;-81
2022/10/24 02:21:49;;;;;;;5.63;2.80;;;15.00;75.90;;;;;;4995424;28;20041;-81
2022/10/24 02:24:23;;;;;;;5.53;2.67;;;15.10;76.10;;;;;;5015557;28;20034;-81
2022/10/24 02:26:58;;;;;;;5.90;2.58;;;15.10;76.10;;;;;;5030526;28;20370;-79
2022/10/24 02:29:42;;;;;;;6.10;2.70;;;15.10;76.10;;;;;;4985115;28;20030;-80
2022/10/24 02:32:12;;;;;;;3.45;1.90;;;15.10;76.10;;;;;;4995274;28;20026;-80
2022/10/24 02:34:40;;;;;;;2.50;1.80;;;15.10;76.00;;;;;;5006070;28;20035;-81
2022/10/24 02:37:07;;;;;;;3.63;2.17;;;15.20;76.20;;;;;;5006401;28;20117;-80
2022/10/24 02:39:36;;;;;;;4.25;2.15;;;15.20;76.20;;;;;;5011738;28;20030;-81
2022/10/24 02:42:04;;;;;;;3.25;1.80;;;15.20;76.10;;;;;;4991238;28;20030;-81
2022/10/24 02:44:31;;;;;;;3.67;2.03;;;15.20;76.10;;;;;;5010381;28;20523;-82
2022/10/24 02:47:00;;;;;;;3.53;1.52;;;15.20;76.10;;;;;;5004638;28;20041;-81
2022/10/24 02:49:26;;;;;;;5.35;2.30;;;15.20;76.10;;;;;;5005483;28;20046;-82
2022/10/24 02:51:53;;;;;;;1.70;1.40;;;15.20;76.00;;;;;;4995558;28;20048;-83
2022/10/24 02:54:19;;;;;;;5.65;1.80;;;15.20;76.00;;;;;;5011819;28;20038;-79
2022/10/24 02:56:56;;;;;;;3.35;1.60;;;15.30;76.20;;;;;;5014994;28;20054;-81
2022/10/24 02:59:22;;;;;;;8.23;1.63;;;15.20;76.00;;;;;;4995121;28;20514;-81
2022/10/24 03:01:48;;;;;;;1.42;1.00;;;15.20;76.00;;;;;;5014497;28;20432;-79
2022/10/24 03:04:14;;;;;;;2.47;1.60;;;15.30;76.20;;;;;;4998274;28;20033;-81
2022/10/24 03:06:41;;;;;;;1.95;1.23;;;15.30;76.20;;;;;;5014248;28;20096;-80
2022/10/24 03:09:10;;;;;;;3.22;1.70;;;15.30;76.20;;;;;;5014370;28;20552;-81
2022/10/24 03:11:37;;;;;;;3.05;1.50;;;15.30;76.20;;;;;;5011409;28;20026;-81
2022/10/24 03:14:04;;;;;;;4.82;1.30;;;15.30;76.20;;;;;;5008464;28;20034;-81
2022/10/24 03:16:30;;;;;;;3.67;1.30;;;15.30;76.20;;;;;;5006454;28;20046;-81
2022/10/24 03:18:56;;;;;;;2.17;1.00;;;15.30;76.20;;;;;;5012767;28;20033;-81
2022/10/24 03:21:23;;;;;;;2.20;0.93;;;15.30;76.20;;;;;;5005156;28;20045;-82
2022/10/24 03:23:49;;;;;;;3.42;1.27;;;15.30;76.20;;;;;;4999581;28;20080;-82
2022/10/24 03:26:16;;;;;;;4.57;1.27;;;15.30;76.20;;;;;;5007031;28;20101;-81
2022/10/24 03:28:42;;;;;;;4.07;1.33;;;15.30;76.20;;;;;;4996396;28;20015;-82
2022/10/24 03:31:10;;;;;;;2.65;1.00;;;15.30;76.20;;;;;;4979923;28;20359;-81
2022/10/24 03:33:35;;;;;;;3.78;1.25;;;15.30;76.30;;;;;;5000665;28;20424;-81
2022/10/24 03:36:04;;;;;;;6.63;1.15;;;15.20;76.70;;;;;;5000605;28;20054;-81
2022/10/24 03:38:32;;;;;;;2.10;0.77;;;15.20;76.10;;;;;;4992562;28;20027;-81
2022/10/24 03:41:00;;;;;;;2.80;0.93;;;15.30;76.30;;;;;;5002532;28;20033;-81
2022/10/24 03:43:26;;;;;;;3.35;0.98;;;15.20;76.20;;;;;;5002128;28;20027;-81
2022/10/24 03:45:54;;;;;;;3.35;1.20;;;15.20;76.20;;;;;;4987471;28;20034;-80
2022/10/24 03:48:20;;;;;;;4.15;1.40;;;15.20;76.20;;;;;;4998686;28;20058;-80
2022/10/24 03:50:46;;;;;;;3.10;1.95;;;15.20;76.20;;;;;;5004690;28;20022;-81
2022/10/24 03:53:13;;;;;;;2.95;0.50;;;15.20;76.20;;;;;;4984155;28;20930;-80
2022/10/24 03:55:40;;;;;;;2.22;0.88;;;15.20;76.30;;;;;;5004974;28;20061;-81
2022/10/24 03:58:06;;;;;;;4.57;1.27;;;15.20;76.30;;;;;;4995324;28;20030;-81
2022/10/24 04:00:38;;;;;;;2.17;1.23;;;15.20;76.30;;;;;;5028266;28;20034;-81
2022/10/24 04:03:04;;;;;;;3.83;1.05;;;15.20;76.30;;;;;;5020309;28;20042;-82
2022/10/24 04:05:32;;;;;;;4.40;0.93;;;15.20;76.30;;;;;;4995384;28;20027;-80
2022/10/24 04:07:58;;;;;;;3.40;0.50;;;15.20;76.30;;;;;;5010446;28;20068;-80
2022/10/24 04:10:26;;;;;;;4.50;1.58;;;15.30;76.50;;;;;;5009171;28;20050;-79
2022/10/24 04:12:53;;;;;;;2.67;0.60;;;15.20;76.30;;;;;;5014214;28;20101;-80
2022/10/24 04:15:22;;;;;;;3.72;1.48;;;15.20;76.30;;;;;;5026250;28;20041;-83
2022/10/24 04:17:48;;;;;;;1.55;0.70;;;15.20;76.30;;;;;;5001291;28;20037;-83
2022/10/24 04:20:18;;;;;;;2.22;0.88;;;15.30;76.50;;;;;;4992376;28;20056;-83
2022/10/24 04:22:45;;;;;;;2.80;1.17;;;15.20;76.30;;;;;;4998225;28;20052;-83
2022/10/24 04:25:12;;;;;;;1.50;0.73;;;15.20;76.40;;;;;;5015296;28;20512;-84
2022/10/24 04:27:39;;;;;;;2.22;0.75;;;15.20;76.40;;;;;;5009037;28;20042;-83
2022/10/24 04:30:11;;;;;;;2.05;0.73;;;15.20;76.40;;;;;;4990537;28;20026;-84
2022/10/24 04:32:38;;;;;;;1.20;0.65;;;15.20;76.30;;;;;;5000724;28;20026;-84
2022/10/24 04:35:07;;;;;;;3.13;0.88;;;15.20;76.30;;;;;;4994947;28;20228;-85
2022/10/24 04:37:34;;;;;;;1.52;0.52;;;15.20;76.30;;;;;;4989638;28;20477;-82
2022/10/24 04:40:02;;;;;;;2.28;0.88;;;15.20;76.30;;;;;;5021306;28;20046;-82
2022/10/24 04:42:30;;;;;;;2.00;0.47;;;15.20;76.30;;;;;;4994083;28;20037;-84
2022/10/24 04:44:56;;;;;;;1.48;0.40;;;15.20;76.40;;;;;;4998489;28;20112;-83
2022/10/24 04:47:22;;;;;;;0.68;0.35;;;15.20;76.40;;;;;;4994783;28;20499;-82
2022/10/24 04:49:52;;;;;;;3.28;1.15;;;15.20;76.40;;;;;;5008998;28;20046;-82
2022/10/24 04:52:21;;;;;;;1.95;0.40;;;15.20;76.40;;;;;;4972164;28;20039;-83
2022/10/24 04:54:46;;;;;;;1.45;0.70;;;15.10;76.60;;;;;;5002715;28;20547;-82
2022/10/24 04:57:13;;;;;;;1.73;0.50;;;15.10;76.30;;;;;;5019128;28;20034;-82
2022/10/24 04:59:40;;;;;;;1.58;0.80;;;15.10;76.40;;;;;;5010272;28;20111;-83
2022/10/24 05:02:08;;;;;;;2.72;0.60;;;15.10;76.40;;;;;;5012567;28;20038;-83
2022/10/24 05:04:38;;;;;;;1.73;0.55;;;15.20;76.60;;;;;;4993120;28;20051;-85
2022/10/24 05:07:04;;;;;;;1.70;0.30;;;15.10;76.40;;;;;;4997007;28;20030;-83
2022/10/24 05:09:30;;;;;;;1.77;0.65;;;15.10;76.40;;;;;;5004161;28;20031;-84
2022/10/24 05:11:57;;;;;;;1.52;0.65;;;15.10;76.40;;;;;;5009692;28;20404;-84
2022/10/24 05:14:25;;;;;;;3.35;0.47;;;15.10;76.40;;;;;;5007300;28;20041;-84
2022/10/24 05:16:53;;;;;;;2.72;0.70;;;15.10;76.40;;;;;;5004148;28;20405;-83
2022/10/24 05:19:19;;;;;;;3.45;0.40;;;15.10;76.40;;;;;;5025544;28;20235;-85
2022/10/24 05:21:46;;;;;;;0.43;0.30;;;15.10;76.40;;;;;;4995523;28;20057;-82
2022/10/24 05:24:12;;;;;;;1.00;0.52;;;15.10;76.40;;;;;;4998906;28;20032;-81
2022/10/24 05:26:39;;;;;;;2.17;0.50;;;15.10;76.40;;;;;;5013478;28;20284;-81
2022/10/24 05:29:04;;;;;;;1.50;0.40;;;15.10;76.40;;;;;;5009046;28;20540;-84
2022/10/24 05:31:32;;;;;;;1.98;0.55;;;15.10;76.40;;;;;;5001701;28;20452;-81
2022/10/24 05:34:01;;;;;;;1.05;0.50;;;15.10;76.40;;;;;;4982945;28;20035;-80
2022/10/24 05:36:27;;;;;;;1.27;0.40;;;15.10;76.40;;;;;;4993067;28;20042;-82
2022/10/24 05:38:52;;;;;;;0.32;0.32;;;15.10;76.40;;;;;;4995779;28;20027;-91
2022/10/24 05:41:18;;;;;;;0.88;0.30;;;15.00;76.80;;;;;;5007137;28;20052;-90
2022/10/24 05:43:44;;;;;;;3.10;0.52;;;15.00;76.30;;;;;;5004883;28;20036;-91
2022/10/24 05:46:13;;;;;;;2.50;0.93;;;15.00;76.30;;;;;;5022240;28;20046;-87
2022/10/24 05:48:40;;;;;;;2.25;0.50;;;15.00;76.40;;;;;;4995193;28;20408;-89
2022/10/24 05:51:08;;;;;;;1.25;0.50;;;14.90;76.20;;;;;;4993756;28;20026;-83
2022/10/24 05:53:34;;;;;;;2.67;0.90;;;14.90;76.20;;;;;;4992961;28;20092;-84
2022/10/24 05:56:00;;;;;;;1.50;0.45;;;14.90;76.30;;;;;;5023801;28;20034;-83
2022/10/24 05:58:26;;;;;;;0.88;0.30;;;14.90;76.30;;;;;;4998396;28;20036;-87
2022/10/24 06:00:52;;;;;;;2.83;0.55;;;14.90;76.30;;;;;;4994788;28;20511;-86
2022/10/24 06:03:19;;;;;;;2.97;0.68;;;14.80;76.20;;;;;;4998854;28;20046;-87
2022/10/24 06:05:45;;;;;;;1.50;0.50;;;14.80;76.20;;;;;;5020357;28;20040;-87
2022/10/24 06:08:13;;;;;;;1.70;0.43;;;14.80;76.20;;;;;;5009235;28;20076;-82
2022/10/24 06:10:39;;;;;;;0.77;0.40;;;14.80;76.30;;;;;;5031231;28;20065;-80
2022/10/24 06:13:05;;;;;;;1.27;0.70;;;14.80;76.30;;;;;;5021283;28;20030;-81
2022/10/24 06:15:31;;;;;;;3.13;0.38;;;14.80;76.30;;;;;;5015274;28;20077;-81
2022/10/24 06:17:59;;;;;;;0.98;0.40;;;14.70;76.10;;;;;;5025341;28;20014;-87
2022/10/24 06:20:25;;;;;;;1.60;0.35;;;14.70;76.10;;;;;;5012932;28;20018;-85
2022/10/24 06:22:52;;;;;;;1.65;0.35;;;14.70;76.20;;;;;;5025219;28;20127;-87
2022/10/24 06:25:18;;;;;;;2.40;0.60;;;14.70;76.20;;;;;;5006779;28;20093;-88
2022/10/24 06:27:44;;;;;;;2.85;0.60;;;14.70;76.30;;;;;;4973745;28;20026;-86
2022/10/24 06:30:10;;;;;;;2.38;0.60;;;14.70;76.90;;;;;;5006304;28;20077;-83
2022/10/24 06:32:38;;;;;;;2.45;0.50;;;14.80;77.50;;;;;;4992174;28;20089;-81
2022/10/24 06:35:04;;;;;;;2.78;0.55;;;14.80;77.80;;;;;;5008637;28;20050;-85
2022/10/24 06:37:32;;;;;;;2.88;0.93;;;14.80;77.80;;;;;;4991543;28;20048;-83
2022/10/24 06:40:00;;;;;;;3.03;0.40;;;14.80;77.90;;;;;;5007723;28;20038;-86
2022/10/24 06:42:27;;;;;;;1.38;0.55;;;14.80;77.90;;;;;;4996527;28;20441;-85
2022/10/24 06:44:53;;;;;;;2.17;0.60;;;14.80;78.00;;;;;;4992517;28;20788;-85
2022/10/24 06:47:20;;;;;;;2.40;0.60;;;14.70;77.90;;;;;;4992859;28;20768;-83
2022/10/24 06:49:46;;;;;;;1.52;0.40;;;14.70;77.90;;;;;;4991505;28;20030;-84
2022/10/24 06:52:11;;;;;;;2.03;1.23;;;14.70;77.90;;;;;;4990496;28;20038;-85
2022/10/24 06:54:38;;;;;;;1.90;0.70;;;14.70;77.90;;;;;;4990966;28;20125;-81
2022/10/24 06:57:04;;;;;;;1.35;0.40;;;14.60;77.70;;;;;;4990781;28;20492;-81
2022/10/24 06:59:30;;;;;;;1.58;0.50;;;14.60;77.70;;;;;;4991417;28;20038;-79
2022/10/24 07:01:57;;;;;;;1.42;0.63;;;14.60;77.70;;;;;;4983592;28;20030;-81
2022/10/24 07:04:24;;;;;;;5.45;0.60;;;14.60;77.70;;;;;;4960718;28;20022;-83
2022/10/24 07:06:50;;;;;;;1.75;0.50;;;14.50;77.50;;;;;;4989995;28;20038;-83
2022/10/24 07:09:16;;;;;;;1.90;0.60;;;14.50;77.50;;;;;;4988903;28;20036;-81
2022/10/24 07:11:43;;;;;;;1.95;0.55;;;14.50;78.00;;;;;;4993016;28;20026;-83
2022/10/24 07:14:10;;;;;;;0.73;0.40;;;14.50;77.50;;;;;;4994843;28;20097;-80
2022/10/24 07:16:37;;;;;;;1.88;0.60;;;14.50;77.40;;;;;;4992235;28;20034;-80
2022/10/24 07:19:04;;;;;;;1.77;0.60;;;14.50;77.40;;;;;;4993043;28;20047;-80
2022/10/24 07:21:31;;;;;;;2.15;0.43;;;14.40;77.20;;;;;;4993015;28;20088;-81
2022/10/24 07:24:00;;;;;;;1.58;0.60;;;14.40;77.10;;;;;;4991703;28;20038;-82
2022/10/24 07:26:27;;;;;;;1.88;0.70;;;14.40;77.10;;;;;;4989570;28;20052;-88
2022/10/24 07:28:57;;;;;;;2.78;0.93;;;14.40;77.10;;;;;;4994137;28;20521;-85
2022/10/24 07:31:26;;;;;;;3.47;1.60;;;14.40;77.10;;;;;;4997144;28;20026;-84
2022/10/24 07:33:52;;;;;;;4.55;0.70;;;14.40;77.10;;;;;;4974529;28;20034;-84
2022/10/24 07:36:22;;;;;;;2.35;0.95;;;14.40;77.10;;;;;;4993024;28;20468;-83
2022/10/24 07:38:50;;;;;;;1.98;1.10;;;14.30;76.80;;;;;;4988298;28;20030;-82
2022/10/24 07:41:17;;;;;;;1.13;0.60;;;14.40;77.10;;;;;;4992559;28;20061;-84
2022/10/24 07:43:45;;;;;;;1.90;0.70;;;14.30;76.80;;;;;;4991309;28;20481;-82
2022/10/24 07:46:13;;;;;;;4.07;1.42;;;14.30;76.80;;;;;;5007135;28;20034;-84
2022/10/24 07:48:41;;;;;;;3.83;0.70;;;14.30;76.80;;;;;;4991358;28;20031;-83
2022/10/24 07:51:11;;;;;;;1.50;0.60;;;14.30;76.80;;;;;;4991003;28;20117;-83
2022/10/24 07:53:38;;;;;;;3.83;0.65;;;14.30;76.80;;;;;;4992360;28;20014;-83
2022/10/24 07:56:08;;;;;;;3.45;0.85;;;14.30;76.80;;;;;;5007437;28;20061;-86
2022/10/24 07:58:35;;;;;;;2.60;0.80;;;14.30;76.80;;;;;;4994388;28;20096;-89
2022/10/24 08:01:03;;;;;;;1.88;0.70;;;14.30;76.70;;;;;;5007276;28;20102;-81
2022/10/24 08:03:30;;;;;;;3.90;1.20;;;14.30;76.90;;;;;;4988828;28;20110;-82
2022/10/24 08:05:56;;;;;;;2.35;1.00;;;14.30;77.20;;;;;;4983878;28;20034;-83
2022/10/24 08:08:22;;;;;;;3.22;1.35;;;14.40;77.70;;;;;;4994669;28;20029;-82
2022/10/24 08:10:48;;;;;;;4.75;1.90;;;14.50;78.10;;;;;;4996340;28;20459;-83
2022/10/24 08:13:14;;;;;;;4.25;1.33;;;14.50;78.30;;;;;;4992450;28;20030;-83
2022/10/24 08:15:40;;;;;;;4.97;1.20;;;14.50;78.40;;;;;;4990317;28;20041;-81
2022/10/24 08:18:07;;;;;;;6.40;1.48;;;14.50;78.60;;;;;;5000642;28;20034;-80
2022/10/24 08:20:33;;;;;;;4.75;1.30;;;14.50;78.90;;;;;;5006606;28;20037;-81
2022/10/24 08:23:00;;;;;;;7.35;1.40;;;14.60;79.20;;;;;;4989376;28;20018;-89
2022/10/24 08:25:26;;;;;;;3.85;1.73;;;14.60;79.40;;;;;;4995698;28;20022;-83
2022/10/24 08:27:52;;;;;;;3.08;1.20;;;14.70;79.60;;;;;;4992671;28;20061;-83
2022/10/24 08:30:19;;;;;;;6.53;2.13;;;14.70;79.70;;;;;;5018705;28;20035;-84
2022/10/24 08:32:45;;;;;;;5.88;2.20;;;14.70;79.80;;;;;;4990402;28;20034;-93
2022/10/24 08:35:16;;;;;;;7.32;2.38;;;14.70;79.90;;;;;;4988877;28;20034;-77
2022/10/24 08:37:42;;;;;;;6.13;1.83;;;14.70;80.10;;;;;;4991014;28;20045;-77
2022/10/24 08:40:14;;;;;;;4.55;2.03;;;14.80;80.20;;;;;;5002099;28;20030;-77
2022/10/24 08:42:40;;;;;;;4.20;1.60;;;14.80;80.40;;;;;;5002791;28;20026;-79
2022/10/24 08:45:18;;;;;;;6.65;2.15;;;14.80;80.50;;;;;;4990199;28;20217;-78
2022/10/24 08:47:59;;;;;;;4.75;2.13;;;14.90;80.70;;;;;;4989597;28;20054;-77
2022/10/24 08:50:29;;;;;;;4.43;1.55;;;14.90;80.80;;;;;;4991974;28;20045;-79
2022/10/24 08:52:58;;;;;;;5.07;1.63;;;14.90;80.70;;;;;;4989496;28;20486;-83
2022/10/24 08:55:29;;;;;;;10.52;2.83;;;15.00;81.00;;;;;;4988323;28;20057;-82
2022/10/24 08:57:59;;;;;;;5.35;1.80;;;15.00;81.40;;;;;;4990850;28;20030;-83
2022/10/24 09:00:30;;;;;;;10.80;2.13;;;15.20;81.90;;;;;;4994642;28;20084;-81
2022/10/24 09:03:27;;;;;;;7.50;2.05;;;15.30;82.10;;;;;;5006912;28;20046;-82
2022/10/24 09:05:58;;;;;;;5.85;1.88;;;15.50;82.60;;;;;;5006413;28;20366;-80
2022/10/24 09:08:29;;;;;;;4.38;1.17;;;15.60;82.30;;;;;;4995815;28;20148;-80
2022/10/24 09:11:01;;;;;;;4.93;1.58;;;15.80;82.40;;;;;;5006716;28;20048;-77
2022/10/24 09:13:29;;;;;;;4.80;2.20;;;15.90;82.60;;;;;;4990091;28;20034;-82
2022/10/24 09:15:56;;;;;;;4.63;1.50;;;16.10;82.60;;;;;;4988507;28;20438;-81
2022/10/24 09:18:28;;;;;;;4.88;1.65;;;16.20;82.50;;;;;;4958353;28;20034;-80
2022/10/24 09:20:54;;;;;;;5.32;1.38;;;16.30;82.50;;;;;;4987522;28;20034;-81
2022/10/24 09:23:22;;;;;;;6.50;2.25;;;16.40;82.30;;;;;;5004600;28;20036;-80
2022/10/24 09:25:53;;;;;;;2.72;1.58;;;16.50;82.30;;;;;;4989809;28;20384;-81
2022/10/24 09:28:20;;;;;;;4.30;1.38;;;16.60;82.70;;;;;;5001750;28;20079;-80
2022/10/24 09:30:47;;;;;;;3.08;1.17;;;16.70;82.10;;;;;;4988694;28;20037;-79
2022/10/24 09:33:30;;;;;;;6.47;2.50;;;16.70;82.00;;;;;;5005483;28;20485;-79
2022/10/24 09:35:59;;;;;;;5.78;1.67;;;16.80;82.00;;;;;;4987556;28;20050;-81
2022/10/24 09:38:33;;;;;;;5.50;1.70;;;16.90;81.90;;;;;;4988520;28;20037;-80
2022/10/24 09:41:04;;;;;;;5.97;1.80;;;16.90;81.80;;;;;;4989504;28;20044;-81
2022/10/24 09:43:32;;;;;;;3.78;1.83;;;17.00;81.80;;;;;;4980795;28;20030;-79
2022/10/24 09:46:06;;;;;;;4.45;1.67;;;17.00;81.70;;;;;;4990535;28;20046;-79
2022/10/24 09:48:48;;;;;;;5.88;1.42;;;17.00;81.50;;;;;;5016337;28;20067;-80
2022/10/24 09:51:34;;;;;;;3.78;1.23;;;17.10;81.50;;;;;;4990563;28;20029;-80
2022/10/24 09:54:02;;;;;;;3.50;1.20;;;17.20;81.50;;;;;;4979680;28;20470;-80
2022/10/24 09:56:35;;;;;;;5.35;1.45;;;17.20;81.30;;;;;;5002088;28;20108;-80
2022/10/24 09:59:17;;;;;;;7.83;2.80;;;17.20;81.20;;;;;;5014417;28;20038;-81
2022/10/24 10:01:44;;;;;;;7.63;1.42;;;17.30;81.20;;;;;;4995237;28;20432;-79
2022/10/24 10:04:16;;;;;;;5.20;1.73;;;17.40;81.20;;;;;;4998988;28;20045;-78
2022/10/24 10:06:45;;;;;;;3.33;1.20;;;17.40;81.00;;;;;;4993417;28;20034;-78
2022/10/24 10:09:25;;;;;;;5.38;1.33;;;17.50;80.90;;;;;;4992390;28;20025;-81
2022/10/24 10:11:57;;;;;;;6.18;1.23;;;17.60;80.90;;;;;;5006211;28;20087;-81
2022/10/24 10:14:26;;;;;;;3.92;1.35;;;17.60;80.70;;;;;;5026789;28;20443;-82
2022/10/24 10:17:01;;;;;;;3.22;1.10;;;17.70;80.70;;;;;;5008747;28;20037;-81
2022/10/24 10:19:38;;;;;;;6.40;1.63;;;17.70;80.50;;;;;;5001535;28;20039;-79
2022/10/24 10:22:22;;;;;;;5.93;1.40;;;17.80;80.50;;;;;;4996671;28;20065;-79
2022/10/24 10:24:50;;;;;;;4.35;1.42;;;17.90;80.40;;;;;;4996418;28;20023;-81
2022/10/24 10:27:31;;;;;;;6.75;2.17;;;17.90;80.30;;;;;;4993015;28;20088;-81
2022/10/24 10:30:10;;;;;;;4.57;1.70;;;17.90;80.10;;;;;;4994544;28;20069;-82
2022/10/24 10:33:13;;;;;;;4.70;1.05;;;18.00;80.10;;;;;;4989780;28;20042;-82
2022/10/24 10:35:57;;;;;;;8.02;1.92;;;18.00;79.90;;;;;;4968368;28;20054;-90
2022/10/24 10:38:38;;;;;;;5.15;1.90;;;18.10;79.90;;;;;;4990649;28;20061;-84
2022/10/24 10:41:45;;;;;;;9.27;1.90;;;18.20;79.80;;;;;;4990131;28;20044;-81
2022/10/24 10:44:17;;;;;;;5.07;1.17;;;18.30;79.80;;;;;;4991404;28;20236;-87
2022/10/24 10:47:16;;;;;;;4.50;1.60;;;18.40;79.60;;;;;;4996732;28;20030;-83
2022/10/24 10:49:42;;;;;;;5.35;2.33;;;18.60;79.40;;;;;;4995889;28;20131;-81
2022/10/24 10:52:28;;;;;;;2.38;1.40;;;18.70;79.20;;;;;;5005153;28;20026;-87
2022/10/24 10:55:06;;;;;;;7.20;1.67;;;18.70;79.00;;;;;;4984457;28;20040;-88
2022/10/24 10:57:35;;;;;;;5.75;1.63;;;18.80;79.10;;;;;;4990255;28;20043;-89
2022/10/24 11:00:11;;;;;;;6.72;1.92;;;18.90;79.20;;;;;;4989539;28;20031;-85
2022/10/24 11:02:37;;;;;;;8.98;1.85;;;18.90;79.00;;;;;;4990426;28;20472;-85
2022/10/24 11:05:44;;;;;;;8.75;2.08;;;19.00;79.00;;;;;;4991686;28;20121;-86
2022/10/24 11:08:12;;;;;;;5.32;1.45;;;19.00;78.80;;;;;;4979855;28;20038;-88
2022/10/24 11:10:51;;;;;;;3.92;1.48;;;19.10;78.90;;;;;;4994081;28;20036;-86
2022/10/24 11:13:22;;;;;;;4.93;1.63;;;19.10;78.70;;;;;;4991873;28;20026;-83
2022/10/24 11:15:54;;;;;;;5.90;1.63;;;19.20;78.70;;;;;;4994879;28;20038;-82
2022/10/24 11:18:29;;;;;;;5.45;1.48;;;19.20;78.60;;;;;;4990928;28;20041;-81
2022/10/24 11:21:06;;;;;;;5.18;1.55;;;19.20;78.20;;;;;;4983916;28;20108;-81
2022/10/24 11:23:45;;;;;;;5.03;1.50;;;19.20;78.10;;;;;;4996586;28;20209;-85
2022/10/24 11:26:29;;;;;;;7.07;1.70;;;19.30;78.10;;;;;;4992431;28;20065;-87
2022/10/24 11:28:55;;;;;;;8.45;2.03;;;19.20;77.70;;;;;;4983755;28;20107;-85
2022/10/24 11:31:26;;;;;;;3.65;1.60;;;19.30;77.80;;;;;;5005377;28;20022;-80
2022/10/24 11:33:57;;;;;;;4.20;1.40;;;19.30;77.50;;;;;;4987279;28;20038;-80
2022/10/24 11:36:40;;;;;;;4.35;1.27;;;19.50;77.50;;;;;;4989219;28;20472;-80
2022/10/24 11:39:22;;;;;;;6.55;1.45;;;19.60;77.60;;;;;;5001284;28;20045;-80
2022/10/24 11:41:57;;;;;;;4.97;2.05;;;19.70;77.30;;;;;;4977983;28;20038;-81
2022/10/24 11:44:56;;;;;;;5.18;1.67;;;19.80;76.60;;;;;;4989450;28;20092;-80
2022/10/24 11:47:25;;;;;;;7.07;1.88;;;19.90;76.30;;;;;;4990026;28;20030;-81
2022/10/24 11:49:57;;;;;;;6.95;2.42;;;20.10;76.30;;;;;;4989534;28;20044;-81
2022/10/24 11:52:31;;;;;;;4.95;1.90;;;20.20;75.90;;;;;;5000534;28;20025;-88
2022/10/24 11:55:17;;;;;;;6.22;1.45;;;20.30;75.60;;;;;;4991966;28;20505;-80
2022/10/24 11:57:47;;;;;;;7.53;2.15;;;20.40;75.20;;;;;;4991340;28;20512;-86
2022/10/24 12:00:28;;;;;;;4.75;1.40;;;20.50;75.20;;;;;;4996363;28;20046;-84
2022/10/24 12:03:22;;;;;;;8.25;1.90;;;20.50;74.80;;;;;;4993463;28;20054;-81
2022/10/24 12:06:11;;;;;;;5.28;1.70;;;20.40;74.40;;;;;;5022077;28;20042;-83
2022/10/24 12:08:46;;;;;;;6.05;1.67;;;20.40;74.30;;;;;;5008372;28;20057;-81
2022/10/24 12:11:18;;;;;;;8.02;2.00;;;20.40;74.10;;;;;;5010752;28;20057;-82
2022/10/24 12:14:18;;;;;;;7.55;1.35;;;20.40;74.10;;;;;;4990919;28;20050;-83
2022/10/24 12:17:14;;;;;;;4.28;1.23;;;20.30;73.80;;;;;;5010834;28;20126;-82
2022/10/24 12:19:43;;;;;;;5.72;1.58;;;20.20;73.70;;;;;;4997625;28;20082;-82
2022/10/24 12:22:26;;;;;;;5.47;1.30;;;20.10;73.90;;;;;;4990668;28;20045;-82
2022/10/24 12:25:16;;;;;;;8.93;2.05;;;20.10;73.70;;;;;;4989466;28;20034;-82
2022/10/24 12:27:42;;;;;;;10.68;2.65;;;20.00;73.60;;;;;;4990665;28;20038;-81
2022/10/24 12:30:17;;;;;;;6.65;1.98;;;20.00;73.80;;;;;;5001796;28;20034;-81
2022/10/24 12:32:49;;;;;;;6.95;1.60;;;19.90;73.60;;;;;;4982086;28;20308;-80
2022/10/24 12:35:33;;;;;;;;;;;19.90;73.70;;;;;;4990082;28;20077;-82
2022/10/24 12:38:01;;;;;;;7.10;2.22;;;19.90;73.90;;;;;;5007244;28;19917;-81
2022/10/24 12:40:50;;;;;;;5.30;1.80;;;19.80;73.90;;;;;;5014282;28;20030;-81
2022/10/24 12:43:34;;;;;;;7.45;2.47;;;19.80;73.80;;;;;;4988694;28;20070;-82
2022/10/24 12:46:15;;;;;;;3.35;1.30;;;19.80;73.90;;;;;;4992602;28;20128;-82
2022/10/24 12:49:07;;;;;;;8.52;2.50;;;19.80;73.90;;;;;;5016026;28;20061;-82
2022/10/24 12:51:37;;;;;;;6.78;1.75;;;19.90;73.90;;;;;;4981783;28;20022;-81
2022/10/24 12:54:14;;;;;;;4.30;1.77;;;20.00;73.90;;;;;;5005202;28;20053;-82
2022/10/24 12:56:52;;;;;;;4.40;1.02;;;20.00;73.70;;;;;;4998763;28;20075;-83
2022/10/24 12:59:18;;;;;;;3.17;1.13;;;19.90;73.40;;;;;;5006071;28;20040;-82
2022/10/24 13:01:46;;;;;;;5.57;2.08;;;19.90;73.60;;;;;;5005738;28;20362;-82
2022/10/24 13:04:15;;;;;;;3.38;1.17;;;19.80;73.60;;;;;;5005678;28;20033;-82
2022/10/24 13:07:06;;;;;;;4.00;0.90;;;19.70;73.60;;;;;;5022445;28;20052;-79
2022/10/24 13:09:56;;;;;;;3.33;0.85;;;19.70;73.50;;;;;;4981105;28;20015;-80